Reading Center, Vermont
Current Conditions -  °F | °C
As of 6:54 PM on Wednesday 26 Nov 2014 (Local Time) from KVSF Reporting Station
Moderate Snow Moderate Snow  
Wind Chill: 26°   Ceiling: 700
Heat Index: 31°   Visibility: 0.5mi
Dew Point: 29°   Wind: 5mph
Humidity: 92%   Direction: NA
Pressure: 29.95"   Gusts: NA
Location:  43.4984°N, 72.5943°W
Report Text: KVSF 262354Z AUTO VRB04KT 1/2SM SN FZFG VV007 M01/M02 A2995 RMK AO2 SLP148 P0009 60048 T10061017 11006 21011 58017
Loading
Personal Weather Stations






























Interactive Weather Map New forecast layout! Learn more

10-Day Weather Forecast

Advertisements
Track Severe Weather on mobile